createdAt,value
2018-01-14T00:01:50.306Z,76.63
2018-01-14T00:04:17.910Z,76.84
2018-01-14T00:06:45.570Z,76.93
2018-01-14T00:09:13.313Z,76.49
2018-01-14T00:11:40.934Z,76.54
2018-01-14T00:14:08.758Z,76.70
2018-01-14T00:16:36.382Z,76.80
2018-01-14T00:19:04.094Z,76.43
2018-01-14T00:21:31.737Z,76.77
2018-01-14T00:23:59.332Z,76.54
2018-01-14T00:26:27.114Z,76.75
2018-01-14T00:28:54.733Z,76.51
2018-01-14T00:31:22.462Z,76.74
2018-01-14T00:33:50.045Z,76.64
2018-01-14T00:36:17.696Z,76.51
2018-01-14T00:38:45.310Z,76.52
2018-01-14T00:41:12.919Z,76.78
2018-01-14T00:43:40.558Z,77.02
2018-01-14T00:46:08.186Z,76.91
2018-01-14T00:48:35.806Z,76.63
2018-01-14T00:51:03.390Z,76.42
2018-01-14T00:53:31.072Z,76.06
2018-01-14T00:55:58.767Z,76.44
2018-01-14T00:58:26.402Z,76.13
2018-01-14T01:00:53.994Z,76.70
2018-01-14T01:03:21.624Z,76.32
2018-01-14T01:05:49.243Z,76.67
2018-01-14T01:08:16.857Z,76.76
2018-01-14T01:10:44.442Z,76.89
2018-01-14T01:13:12.079Z,76.92
2018-01-14T01:15:39.658Z,76.94
2018-01-14T01:18:07.262Z,76.80
2018-01-14T01:20:34.929Z,77.09
2018-01-14T01:23:02.530Z,77.22
2018-01-14T01:25:30.168Z,77.39
2018-01-14T01:27:57.763Z,77.08
2018-01-14T01:30:25.402Z,77.14
2018-01-14T01:32:53.045Z,77.33
2018-01-14T01:35:20.682Z,77.41
2018-01-14T01:37:48.288Z,77.29
2018-01-14T01:40:15.931Z,77.54
2018-01-14T01:42:43.526Z,77.55
2018-01-14T01:45:11.153Z,77.79
2018-01-14T01:47:38.749Z,77.59
2018-01-14T01:50:06.381Z,77.59
2018-01-14T01:52:33.953Z,77.53
2018-01-14T01:55:01.601Z,77.81
2018-01-14T01:57:29.193Z,77.46
2018-01-14T01:59:56.785Z,77.43
2018-01-14T02:02:24.414Z,77.43
2018-01-14T02:04:52.025Z,77.48
2018-01-14T02:07:19.641Z,77.51
2018-01-14T02:09:47.229Z,77.46
2018-01-14T02:12:14.862Z,77.22
2018-01-14T02:14:42.550Z,77.31
2018-01-14T02:17:10.161Z,77.05
2018-01-14T02:19:37.743Z,77.16
2018-01-14T02:22:05.403Z,77.08
2018-01-14T02:24:33.011Z,76.97
2018-01-14T02:27:00.610Z,77.26
2018-01-14T02:29:28.352Z,77.23
2018-01-14T02:31:55.949Z,77.28
2018-01-14T02:34:23.566Z,77.32
2018-01-14T02:36:51.163Z,77.28
2018-01-14T02:39:18.785Z,77.41
2018-01-14T02:41:46.418Z,77.57
2018-01-14T02:44:14.054Z,77.45
2018-01-14T02:46:41.650Z,77.37
2018-01-14T02:49:09.275Z,77.80
2018-01-14T02:51:36.876Z,77.52
2018-01-14T02:54:04.505Z,77.67
2018-01-14T02:56:33.046Z,77.67
2018-01-14T02:59:00.670Z,77.50
2018-01-14T03:01:28.263Z,77.66
2018-01-14T03:03:55.914Z,77.78
2018-01-14T03:06:23.498Z,77.74
2018-01-14T03:08:51.222Z,77.59
2018-01-14T03:11:18.857Z,77.51
2018-01-14T03:13:46.418Z,77.72
2018-01-14T03:16:14.048Z,77.40
2018-01-14T03:18:41.637Z,77.45
2018-01-14T03:21:09.277Z,77.81
2018-01-14T03:23:36.926Z,78.10
2018-01-14T03:26:04.553Z,78.12
2018-01-14T03:28:32.133Z,78.18
2018-01-14T03:30:59.807Z,78.29
2018-01-14T03:33:27.418Z,78.36
2018-01-14T03:35:55.094Z,78.15
2018-01-14T03:38:22.683Z,78.42
2018-01-14T03:40:50.327Z,78.46
2018-01-14T03:43:17.920Z,78.60
2018-01-14T03:45:45.546Z,78.57
2018-01-14T03:48:13.185Z,78.46
2018-01-14T03:50:40.768Z,78.67
2018-01-14T03:53:08.386Z,78.41
2018-01-14T03:55:35.974Z,78.79
2018-01-14T03:58:03.606Z,78.57
2018-01-14T04:00:31.200Z,78.58
2018-01-14T04:02:58.820Z,78.61
2018-01-14T04:05:26.413Z,78.50
2018-01-14T04:07:54.109Z,78.52
2018-01-14T04:10:21.700Z,78.62
2018-01-14T04:12:49.501Z,78.60
2018-01-14T04:15:17.096Z,78.28
2018-01-14T04:17:44.729Z,78.31
2018-01-14T04:20:12.326Z,78.39
2018-01-14T04:22:39.934Z,78.38
2018-01-14T04:25:07.580Z,78.32
2018-01-14T04:27:35.170Z,78.35
2018-01-14T04:30:02.853Z,78.32
2018-01-14T04:32:30.467Z,78.21
2018-01-14T04:34:58.073Z,78.39
2018-01-14T04:37:25.676Z,78.46
2018-01-14T04:39:53.353Z,78.53
2018-01-14T04:42:20.953Z,78.62
2018-01-14T04:44:48.617Z,78.65
2018-01-14T04:47:16.241Z,78.91
2018-01-14T04:49:43.870Z,79.11
2018-01-14T04:52:15.378Z,78.95
2018-01-14T04:54:43.002Z,78.96
2018-01-14T04:57:10.611Z,78.93
2018-01-14T04:59:38.262Z,79.02
2018-01-14T05:02:05.855Z,78.71
2018-01-14T05:04:33.497Z,78.54
2018-01-14T05:07:01.132Z,78.28
2018-01-14T05:09:28.721Z,78.62
2018-01-14T05:11:56.409Z,78.79
2018-01-14T05:14:24.021Z,78.54
2018-01-14T05:16:51.637Z,78.74
2018-01-14T05:19:19.239Z,78.61
2018-01-14T05:21:46.850Z,78.88
2018-01-14T05:24:14.449Z,78.72
2018-01-14T05:26:42.072Z,78.82
2018-01-14T05:29:09.786Z,78.88
2018-01-14T05:31:37.405Z,78.79
2018-01-14T05:34:04.950Z,78.76
2018-01-14T05:36:32.591Z,78.47
2018-01-14T05:39:00.232Z,78.64
2018-01-14T05:41:27.861Z,78.77
2018-01-14T05:43:55.486Z,78.42
2018-01-14T05:46:23.070Z,77.74
2018-01-14T05:48:50.688Z,78.23
2018-01-14T05:51:18.297Z,77.84
2018-01-14T05:53:45.937Z,78.25
2018-01-14T05:56:13.593Z,78.48
2018-01-14T05:58:41.234Z,78.31
2018-01-14T06:01:08.862Z,77.95
2018-01-14T06:03:36.446Z,78.37
2018-01-14T06:06:04.073Z,78.27
2018-01-14T06:08:31.674Z,78.45
2018-01-14T06:10:59.261Z,78.67
2018-01-14T06:13:26.893Z,78.33
2018-01-14T06:15:54.513Z,78.37
2018-01-14T06:18:22.149Z,78.16
2018-01-14T06:20:49.782Z,78.46
2018-01-14T06:23:17.402Z,78.09
2018-01-14T06:25:45.080Z,78.34
2018-01-14T06:28:12.698Z,78.58
2018-01-14T06:30:40.309Z,78.86
2018-01-14T06:33:07.946Z,78.37
2018-01-14T06:35:35.566Z,78.46
2018-01-14T06:38:03.717Z,78.54
2018-01-14T06:40:31.306Z,78.69
2018-01-14T06:42:58.931Z,78.13
2018-01-14T06:45:26.569Z,78.44
2018-01-14T06:47:54.178Z,78.48
2018-01-14T06:50:21.768Z,78.08
2018-01-14T06:52:49.402Z,78.30
2018-01-14T06:55:16.990Z,78.25
2018-01-14T06:57:44.599Z,78.40
2018-01-14T07:00:12.218Z,78.35
2018-01-14T07:02:39.820Z,78.45
2018-01-14T07:05:07.441Z,78.43
2018-01-14T07:07:35.043Z,78.35
2018-01-14T07:10:02.774Z,78.35
2018-01-14T07:12:30.396Z,78.18
2018-01-14T07:14:58.027Z,78.37
2018-01-14T07:17:25.621Z,78.62
2018-01-14T07:19:53.243Z,78.84
2018-01-14T07:22:20.834Z,78.75
2018-01-14T07:24:48.478Z,78.75
2018-01-14T07:27:16.095Z,79.03
2018-01-14T07:29:43.739Z,78.90
2018-01-14T07:32:11.326Z,78.97
2018-01-14T07:34:39.033Z,79.03
2018-01-14T07:37:06.676Z,79.41
2018-01-14T07:39:34.301Z,79.54
2018-01-14T07:42:01.893Z,79.76
2018-01-14T07:44:29.502Z,80.00
2018-01-14T07:46:57.126Z,79.72
2018-01-14T07:49:24.749Z,79.60
2018-01-14T07:51:52.345Z,79.93
2018-01-14T07:54:20.010Z,79.75
2018-01-14T07:56:47.602Z,79.82
2018-01-14T07:59:15.227Z,79.79
2018-01-14T08:01:42.808Z,79.63
2018-01-14T08:04:10.446Z,79.72
2018-01-14T08:06:38.040Z,79.96
2018-01-14T08:09:05.658Z,79.99
2018-01-14T08:11:33.294Z,79.84
2018-01-14T08:14:00.910Z,79.83
2018-01-14T08:16:28.501Z,79.49
2018-01-14T08:18:56.114Z,79.81
2018-01-14T08:21:23.729Z,79.65
2018-01-14T08:23:51.351Z,79.47
2018-01-14T08:26:18.933Z,79.71
2018-01-14T08:28:46.551Z,79.83
2018-01-14T08:31:14.150Z,79.89
2018-01-14T08:33:41.767Z,80.02
2018-01-14T08:36:09.413Z,79.98
2018-01-14T08:38:37.026Z,80.24
2018-01-14T08:41:04.619Z,80.19
2018-01-14T08:43:32.322Z,80.30
2018-01-14T08:46:00.010Z,80.18
2018-01-14T08:48:27.702Z,80.30
2018-01-14T08:50:55.305Z,80.28
2018-01-14T08:53:22.931Z,80.22
2018-01-14T08:55:50.589Z,80.47
2018-01-14T08:58:18.301Z,79.78
2018-01-14T09:00:45.918Z,80.07
2018-01-14T09:03:13.546Z,79.72
2018-01-14T09:05:41.169Z,79.32
2018-01-14T09:08:08.802Z,79.35
2018-01-14T09:10:36.398Z,79.41
2018-01-14T09:13:04.045Z,79.45
2018-01-14T09:15:31.646Z,79.72
2018-01-14T09:17:59.277Z,79.40
2018-01-14T09:20:26.885Z,79.19
2018-01-14T09:22:54.520Z,78.75
2018-01-14T09:25:22.119Z,78.46
2018-01-14T09:27:49.753Z,78.51
2018-01-14T09:30:17.343Z,77.85
2018-01-14T09:32:45.010Z,78.18
2018-01-14T09:35:12.571Z,77.59
2018-01-14T09:37:40.245Z,77.86
2018-01-14T09:40:07.898Z,77.26
2018-01-14T09:42:35.521Z,77.01
2018-01-14T09:45:03.109Z,76.17
2018-01-14T09:47:30.734Z,75.69
2018-01-14T09:49:58.338Z,75.67
2018-01-14T09:52:25.976Z,75.54
2018-01-14T09:54:53.594Z,75.67
2018-01-14T09:57:21.202Z,75.43
2018-01-14T09:59:48.801Z,74.55
2018-01-14T10:02:16.422Z,74.71
2018-01-14T10:04:44.027Z,74.60
2018-01-14T10:07:11.658Z,74.19
2018-01-14T10:09:39.253Z,74.15
2018-01-14T10:12:06.879Z,73.68
2018-01-14T10:14:34.473Z,73.65
2018-01-14T10:17:02.114Z,73.29
2018-01-14T10:19:29.727Z,73.05
2018-01-14T10:21:57.354Z,73.03
2018-01-14T10:24:24.971Z,72.76
2018-01-14T10:26:52.602Z,72.34
2018-01-14T10:29:20.252Z,71.92
2018-01-14T10:31:47.898Z,71.89
2018-01-14T10:34:15.515Z,72.05
2018-01-14T10:36:43.160Z,71.42
2018-01-14T10:39:10.738Z,70.32
2018-01-14T10:41:38.387Z,70.10
2018-01-14T10:44:05.982Z,70.18
2018-01-14T10:46:33.673Z,70.30
2018-01-14T10:49:01.267Z,70.75
2018-01-14T10:51:28.946Z,71.15
2018-01-14T10:53:56.548Z,71.60
2018-01-14T10:56:24.218Z,71.50
2018-01-14T10:58:53.326Z,71.29
2018-01-14T11:01:26.394Z,70.46
2018-01-14T11:03:53.999Z,69.68
2018-01-14T11:06:21.646Z,69.70
2018-01-14T11:08:49.263Z,70.16
2018-01-14T11:11:16.911Z,70.39
2018-01-14T11:13:44.501Z,70.04
2018-01-14T11:16:12.178Z,69.91
2018-01-14T11:18:39.734Z,70.30
2018-01-14T11:21:07.405Z,69.51
2018-01-14T11:23:34.996Z,70.54
2018-01-14T11:26:02.650Z,70.66
2018-01-14T11:28:39.234Z,70.80
2018-01-14T11:31:06.844Z,70.51
2018-01-14T11:33:34.449Z,70.66
2018-01-14T11:36:02.082Z,69.42
2018-01-14T11:38:29.748Z,69.44
2018-01-14T11:40:57.379Z,69.10
2018-01-14T11:43:24.994Z,68.96
2018-01-14T11:45:52.669Z,69.08
2018-01-14T11:48:20.274Z,68.70
2018-01-14T11:50:47.911Z,67.85
2018-01-14T11:53:15.520Z,67.08
2018-01-14T11:55:43.142Z,67.12
2018-01-14T11:58:10.729Z,67.16
2018-01-14T12:00:38.353Z,67.53
2018-01-14T12:03:05.957Z,67.18
2018-01-14T12:05:33.610Z,66.44
2018-01-14T12:08:01.228Z,65.70
2018-01-14T12:10:28.933Z,65.23
2018-01-14T12:12:56.545Z,66.00
2018-01-14T12:15:24.169Z,65.56
2018-01-14T12:17:51.790Z,64.69
2018-01-14T12:20:19.438Z,65.65
2018-01-14T12:22:47.038Z,66.03
2018-01-14T12:25:14.705Z,65.99
2018-01-14T12:27:42.306Z,66.17
2018-01-14T12:30:09.920Z,66.42
2018-01-14T12:32:49.151Z,65.39
2018-01-14T12:35:16.803Z,66.54
2018-01-14T12:37:44.428Z,67.12
2018-01-14T12:40:12.045Z,67.78
2018-01-14T12:42:39.677Z,67.98
2018-01-14T12:45:07.294Z,68.34
2018-01-14T12:47:35.026Z,68.59
2018-01-14T12:50:02.641Z,68.73
2018-01-14T12:52:30.333Z,68.17
2018-01-14T12:54:57.946Z,66.87
2018-01-14T12:57:25.557Z,66.60
2018-01-14T12:59:53.338Z,66.94
2018-01-14T13:02:20.973Z,66.94
2018-01-14T13:04:48.619Z,66.71
2018-01-14T13:07:16.256Z,67.30
2018-01-14T13:09:43.913Z,67.49
2018-01-14T13:12:11.615Z,67.13
2018-01-14T13:14:39.258Z,67.14
2018-01-14T13:17:06.839Z,66.41
2018-01-14T13:19:34.474Z,66.00
2018-01-14T13:22:02.072Z,66.44
2018-01-14T13:24:29.694Z,67.45
2018-01-14T13:26:57.316Z,68.59
2018-01-14T13:29:24.937Z,68.75
2018-01-14T13:31:52.556Z,68.57
2018-01-14T13:34:20.211Z,67.87
2018-01-14T13:36:47.848Z,67.89
2018-01-14T13:39:15.498Z,67.75
2018-01-14T13:41:43.098Z,68.49
2018-01-14T13:44:10.731Z,69.12
2018-01-14T13:46:38.314Z,69.73
2018-01-14T13:49:05.979Z,69.83
2018-01-14T13:51:33.577Z,69.45
2018-01-14T13:54:01.202Z,69.25
2018-01-14T13:56:28.784Z,69.25
2018-01-14T13:58:56.482Z,69.53
2018-01-14T14:01:24.107Z,69.25
2018-01-14T14:03:51.726Z,69.25
2018-01-14T14:06:19.353Z,69.63
2018-01-14T14:08:47.014Z,69.69
2018-01-14T14:11:14.665Z,70.24
2018-01-14T14:13:42.369Z,70.63
2018-01-14T14:16:09.978Z,70.72
2018-01-14T14:18:37.675Z,70.20
2018-01-14T14:21:05.290Z,70.39
2018-01-14T14:23:33.092Z,70.26
2018-01-14T14:26:00.739Z,70.68
2018-01-14T14:28:28.381Z,70.82
2018-01-14T14:30:56.003Z,70.98
2018-01-14T14:33:23.621Z,71.59
2018-01-14T14:35:51.239Z,71.96
2018-01-14T14:38:18.872Z,72.06
2018-01-14T14:40:46.503Z,72.36
2018-01-14T14:43:14.142Z,72.50
2018-01-14T14:45:41.766Z,72.52
2018-01-14T14:48:09.397Z,72.36
2018-01-14T14:50:37.077Z,72.24
2018-01-14T14:53:04.669Z,71.76
2018-01-14T14:55:32.302Z,71.78
2018-01-14T14:57:59.914Z,71.70
2018-01-14T15:00:27.534Z,72.37
2018-01-14T15:02:55.131Z,72.31
2018-01-14T15:05:22.794Z,72.67
2018-01-14T15:07:50.417Z,72.41
2018-01-14T15:10:18.021Z,72.72
2018-01-14T15:12:45.654Z,72.75
2018-01-14T15:15:13.275Z,72.97
2018-01-14T15:17:40.898Z,73.22
2018-01-14T15:20:08.512Z,73.35
2018-01-14T15:22:36.145Z,73.75
2018-01-14T15:25:03.733Z,74.41
2018-01-14T15:27:31.386Z,73.99
2018-01-14T15:29:58.975Z,74.15
2018-01-14T15:32:26.601Z,74.45
2018-01-14T15:34:54.214Z,74.17
2018-01-14T15:37:21.844Z,74.28
2018-01-14T15:39:49.473Z,74.49
2018-01-14T15:42:17.071Z,74.41
2018-01-14T15:44:44.672Z,74.30
2018-01-14T15:47:12.322Z,74.48
2018-01-14T15:49:39.942Z,74.80
2018-01-14T15:52:07.572Z,75.20
2018-01-14T15:54:35.183Z,75.85
2018-01-14T15:57:02.816Z,76.11
2018-01-14T15:59:30.413Z,75.84
2018-01-14T16:01:58.059Z,75.89
2018-01-14T16:04:25.653Z,75.74
2018-01-14T16:06:53.290Z,75.79
2018-01-14T16:09:20.873Z,75.78
2018-01-14T16:11:48.498Z,75.83
2018-01-14T16:14:16.118Z,75.89
2018-01-14T16:16:43.743Z,76.02
2018-01-14T16:19:11.450Z,76.42
2018-01-14T16:21:39.078Z,76.63
2018-01-14T16:24:06.674Z,76.82
2018-01-14T16:26:34.287Z,76.44
2018-01-14T16:29:01.892Z,76.57
2018-01-14T16:31:29.557Z,76.58
2018-01-14T16:33:57.146Z,76.65
2018-01-14T16:36:24.812Z,76.76
2018-01-14T16:38:52.418Z,76.98
2018-01-14T16:41:20.037Z,77.06
2018-01-14T16:43:47.682Z,76.84
2018-01-14T16:46:15.359Z,76.88
2018-01-14T16:48:42.976Z,77.00
2018-01-14T16:51:10.602Z,77.15
2018-01-14T16:53:38.246Z,76.87
2018-01-14T16:56:05.853Z,76.91
2018-01-14T16:58:33.637Z,76.91
2018-01-14T17:01:01.237Z,76.81
2018-01-14T17:03:28.857Z,76.78
2018-01-14T17:05:56.470Z,76.67
2018-01-14T17:08:24.090Z,77.16
2018-01-14T17:10:51.719Z,77.16
2018-01-14T17:13:19.430Z,77.30
2018-01-14T17:15:47.074Z,77.05
2018-01-14T17:18:14.702Z,77.24
2018-01-14T17:20:42.314Z,77.33
2018-01-14T17:23:10.013Z,77.31
2018-01-14T17:25:37.613Z,77.13
2018-01-14T17:28:05.253Z,77.49
2018-01-14T17:30:32.870Z,77.41
2018-01-14T17:33:00.553Z,77.29
2018-01-14T17:35:28.218Z,77.61
2018-01-14T17:37:55.811Z,77.63
2018-01-14T17:40:23.500Z,77.52
2018-01-14T17:42:51.141Z,77.62
2018-01-14T17:45:18.764Z,77.71
2018-01-14T17:47:46.394Z,77.85
2018-01-14T17:50:13.984Z,77.92
2018-01-14T17:52:41.692Z,77.87
2018-01-14T17:55:09.299Z,78.08
2018-01-14T17:57:36.928Z,78.08
2018-01-14T18:00:04.547Z,78.07
2018-01-14T18:02:32.173Z,77.91
2018-01-14T18:04:59.794Z,78.25
2018-01-14T18:07:27.430Z,78.46
2018-01-14T18:09:55.062Z,78.51
2018-01-14T18:12:22.766Z,78.43
2018-01-14T18:14:50.357Z,78.41
2018-01-14T18:17:25.639Z,78.51
2018-01-14T18:19:53.296Z,78.74
2018-01-14T18:22:20.927Z,79.00
2018-01-14T18:24:48.539Z,79.04
2018-01-14T18:27:16.374Z,78.97
2018-01-14T18:29:44.031Z,78.88
2018-01-14T18:32:11.798Z,78.87
2018-01-14T18:34:39.386Z,79.03
2018-01-14T18:37:07.039Z,79.32
2018-01-14T18:39:34.725Z,79.50
2018-01-14T18:42:02.373Z,79.60
2018-01-14T18:44:30.060Z,82.05
2018-01-14T18:46:57.667Z,79.55
2018-01-14T18:49:25.270Z,79.69
2018-01-14T18:51:52.970Z,79.59
2018-01-14T18:54:20.588Z,80.04
2018-01-14T18:56:48.313Z,80.00
2018-01-14T18:59:15.993Z,80.32
2018-01-14T19:01:43.706Z,80.55
2018-01-14T19:04:11.313Z,80.54
2018-01-14T19:06:39.036Z,80.58
2018-01-14T19:09:06.714Z,80.70
2018-01-14T19:11:34.425Z,80.90
2018-01-14T19:14:02.029Z,80.95
2018-01-14T19:16:29.683Z,80.98
2018-01-14T19:18:57.357Z,81.31
2018-01-14T19:21:25.004Z,81.37
2018-01-14T19:23:52.601Z,81.45
2018-01-14T19:26:20.255Z,81.43
2018-01-14T19:28:47.946Z,81.64
2018-01-14T19:31:15.689Z,81.75
2018-01-14T19:33:43.386Z,81.82
2018-01-14T19:36:11.138Z,81.78
2018-01-14T19:38:38.702Z,81.74
2018-01-14T19:41:06.454Z,81.88
2018-01-14T19:43:34.143Z,81.92
2018-01-14T19:46:01.894Z,82.00
2018-01-14T19:48:29.500Z,81.94
2018-01-14T19:50:57.246Z,81.80
2018-01-14T19:53:24.950Z,81.94
2018-01-14T19:55:52.627Z,81.94
2018-01-14T19:58:20.333Z,82.18
2018-01-14T20:00:48.067Z,82.21
2018-01-14T20:03:15.777Z,82.38
2018-01-14T20:05:43.595Z,82.45
2018-01-14T20:08:11.315Z,82.38
2018-01-14T20:10:39.182Z,82.35
2018-01-14T20:13:07.023Z,82.55
2018-01-14T20:15:34.992Z,82.52
2018-01-14T20:18:02.717Z,82.69
2018-01-14T20:20:30.463Z,82.63
2018-01-14T20:22:58.154Z,82.52
2018-01-14T20:25:25.901Z,82.68
2018-01-14T20:27:53.590Z,82.79
2018-01-14T20:30:21.215Z,82.67
2018-01-14T20:32:48.900Z,82.81
2018-01-14T20:35:16.648Z,82.85
2018-01-14T20:37:44.354Z,82.98
2018-01-14T20:40:12.174Z,82.63
2018-01-14T20:42:39.943Z,82.68
2018-01-14T20:45:07.678Z,82.88
2018-01-14T20:47:35.363Z,82.94
2018-01-14T20:50:03.202Z,82.90
2018-01-14T20:52:30.921Z,83.11
2018-01-14T20:54:58.726Z,83.13
2018-01-14T20:57:26.433Z,83.22
2018-01-14T20:59:54.141Z,87.67
2018-01-14T21:02:21.885Z,82.87
2018-01-14T21:04:49.626Z,82.62
2018-01-14T21:07:17.225Z,82.83
2018-01-14T21:09:44.999Z,83.28
2018-01-14T21:12:12.707Z,83.38
2018-01-14T21:14:40.442Z,83.29
2018-01-14T21:17:08.153Z,83.30
2018-01-14T21:19:35.873Z,83.51
2018-01-14T21:22:03.590Z,83.67
2018-01-14T21:24:31.269Z,83.80
2018-01-14T21:26:58.960Z,83.76
2018-01-14T21:29:26.673Z,83.88
2018-01-14T21:31:54.283Z,83.83
2018-01-14T21:34:21.986Z,83.87
2018-01-14T21:36:49.691Z,83.85
2018-01-14T21:39:17.398Z,83.92
2018-01-14T21:41:45.032Z,83.91
2018-01-14T21:44:12.738Z,83.84
2018-01-14T21:46:40.423Z,83.88
2018-01-14T21:49:08.138Z,83.80
2018-01-14T21:51:35.813Z,83.77
2018-01-14T21:54:03.539Z,83.97
2018-01-14T21:56:31.208Z,83.82
2018-01-14T21:58:58.930Z,83.92
2018-01-14T22:01:26.610Z,83.99
2018-01-14T22:03:54.350Z,84.09
2018-01-14T22:06:36.689Z,83.94
2018-01-14T22:09:04.392Z,83.96
2018-01-14T22:11:32.057Z,83.98
2018-01-14T22:13:59.777Z,83.88
2018-01-14T22:16:27.463Z,83.82
2018-01-14T22:18:55.178Z,83.81
2018-01-14T22:21:22.953Z,83.74
2018-01-14T22:23:50.670Z,83.80
2018-01-14T22:26:18.351Z,83.94
2018-01-14T22:28:46.076Z,84.02
2018-01-14T22:31:13.754Z,84.04
2018-01-14T22:33:41.502Z,83.96
2018-01-14T22:36:09.184Z,83.80
2018-01-14T22:38:36.916Z,83.86
2018-01-14T22:41:04.580Z,83.98
2018-01-14T22:43:32.344Z,83.97
2018-01-14T22:46:00.022Z,84.07
2018-01-14T22:48:27.780Z,83.90
2018-01-14T22:50:55.457Z,83.91
2018-01-14T22:53:23.170Z,83.98
2018-01-14T22:55:50.855Z,84.09
2018-01-14T22:58:18.602Z,84.06
2018-01-14T23:00:46.284Z,83.85
2018-01-14T23:03:13.993Z,83.94
2018-01-14T23:05:41.789Z,83.96
2018-01-14T23:08:09.492Z,83.81
2018-01-14T23:10:37.198Z,83.60
2018-01-14T23:13:04.956Z,83.68
2018-01-14T23:15:32.682Z,83.60
2018-01-14T23:18:00.446Z,83.73
2018-01-14T23:20:28.142Z,83.77
2018-01-14T23:22:55.854Z,83.56
2018-01-14T23:25:23.522Z,83.56
2018-01-14T23:27:51.263Z,83.58
2018-01-14T23:30:18.941Z,83.69
2018-01-14T23:32:46.622Z,83.93
2018-01-14T23:35:14.293Z,83.55
2018-01-14T23:37:42.044Z,83.66
2018-01-14T23:40:09.722Z,83.69
2018-01-14T23:42:37.446Z,83.72
2018-01-14T23:45:05.121Z,83.74
2018-01-14T23:47:32.818Z,83.69
2018-01-14T23:50:00.505Z,83.51
2018-01-14T23:52:28.286Z,83.17
2018-01-14T23:54:55.978Z,83.24
2018-01-14T23:57:23.681Z,83.27
2018-01-14T23:59:51.499Z,83.25
